Palmerston, Tasmania

8:04 PM AEST on September 20, 2014 (GMT +1000)
Lower Coal Valley | Change Station
CLOSE
Current Station
Personal Weather Station
Location: Richmond, TASMANIA
Elevation: 85 ft
Nearby Weather Stations

Elev 85 ft 42.71 °S, 147.45 °E | Updated 10 seconds ago

Partly Cloudy
Partly Cloudy
53.1 °F
Feels Like 53.1 °F
N
14.5
Wind Variable Wind from WSW
Gusts 17.4 mph

Today
High -- | Low -- °F
--% Chance of Precip.
Yesterday
High -- | Low -- °F
Precip. -- in
6:04 AM 6:04 PM
Waning Crescent, 13% visible
Pressure 30.27 in
Visibility 6.2 miles
Clouds Few 4000 ft
Dew Point 40 °F
Humidity 61%
Rainfall 0.00 in
Snow Depth Not available.
UV 0 out of 12
Pollen Not available.
Air Quality Not available.
Flu Activity Not available.
METAR YMHB 200930Z 25007KT 220V280 9999 FEW040 11/03 Q1025

More Conditions Fewer Conditions

Pressure 30.27 in
Visibility 6.2 miles
Clouds Few 4000 ft
Dew Point 40 °F
Humidity 61%
Rainfall 0.00 in
Snow Depth Not available.
UV 0 out of 12
Pollen Not available.
Air Quality Not available.
Flu Activity Not available.
METAR YMHB 200930Z 25007KT 220V280 9999 FEW040 11/03 Q1025

More Conditions Fewer Conditions

10-Day Weather Forecast

Almanac

Astronomy

Sep. 20, 2014 Rise Set
Actual Time 6:04 AM AEST 6:04 PM AEST
Civil Twilight 5:36 AM AEST 6:32 PM AEST
Nautical Twilight 5:03 AM AEST 7:05 PM AEST
Astronomical Twilight 4:29 AM AEST 7:38 PM AEST
Moon 3:41 AM AEST 2:20 PM AEST
Length of Visible Light 12h 56m
Length of Day
12h 00m
Tomorrow will be 2m 52s longer.
Waning Crescent, 13% of the Moon is Illuminated
Today
Waning Crescent
Sep 24
New
Oct 1
First Quarter
Oct 8
Full
Oct 15
Last Quarter

Yesterday's Extremes

Country Highs Country Lows

Community

WunderPhotos

Upload Photos

1,754,820 photos uploaded!

WunderBlogs® & News

Nearby

Snow Depth

Not available.

Earthquake Activity

City Distance Mag. Time & Date
No recent earthquake activity has been reported nearby.
Minimum magnitude displayed is 2.5.

Coastal Water Temperatures

Place Temperature
No Stations Reporting

Nearby Weather Stations